Time;durP1;ratioP1;P1;durP2;ratioP2;P2;SDS_P1;SDS_P2;PMS_P1;PMS_P2;Temp;Humidity;BMP_temperature;BMP_pressure;BME280_temperature;BME280_humidity;BME280_pressure;Samples;Min_cycle;Max_cycle;Signal;HPM_P1;HPM_P2
2024/02/13 00:00:14;;;;;;;35.60;25.60;;;;;;;6.20;100.00;98201.21;109417;1252;58921;-77
2024/02/13 00:03:00;;;;;;;34.80;23.10;;;;;;;6.15;100.00;98207.34;109249;1252;59088;-78
2024/02/13 00:05:27;;;;;;;38.10;25.40;;;;;;;6.10;100.00;98206.91;109334;1253;66009;-77
2024/02/13 00:07:55;;;;;;;38.50;24.90;;;;;;;6.05;100.00;98213.55;109438;1252;61114;-77
2024/02/13 00:10:22;;;;;;;34.60;21.80;;;;;;;6.00;100.00;98215.29;109445;1252;64086;-77
2024/02/13 00:12:50;;;;;;;35.20;22.60;;;;;;;5.96;100.00;98219.27;109429;1252;59223;-77
2024/02/13 00:15:20;;;;;;;35.30;23.50;;;;;;;5.91;100.00;98219.31;109171;1252;59458;-78
2024/02/13 00:17:47;;;;;;;29.60;23.30;;;;;;;5.88;100.00;98220.40;109399;1252;67064;-77
2024/02/13 00:20:14;;;;;;;28.20;21.40;;;;;;;5.84;100.00;98224.73;109408;1252;61243;-77
2024/02/13 00:22:41;;;;;;;27.20;21.60;;;;;;;5.80;100.00;98223.73;109428;1252;65134;-78
2024/02/13 00:25:09;;;;;;;27.90;21.30;;;;;;;5.76;100.00;98228.89;109424;1252;59338;-77
2024/02/13 00:27:36;;;;;;;25.10;18.70;;;;;;;5.72;100.00;98231.03;109441;1252;58965;-78
2024/02/13 00:30:03;;;;;;;26.40;19.40;;;;;;;5.68;100.00;98233.39;109409;1252;66670;-78
2024/02/13 00:32:37;;;;;;;25.10;18.60;;;;;;;5.66;100.00;98233.70;109138;1252;59860;-78
2024/02/13 00:35:08;;;;;;;24.90;18.70;;;;;;;5.64;100.00;98235.04;109388;1252;64197;-78
2024/02/13 00:37:36;;;;;;;23.80;17.90;;;;;;;5.61;100.00;98238.74;109124;1252;59022;-78
2024/02/13 00:40:05;;;;;;;22.30;16.00;;;;;;;5.58;100.00;98245.83;109418;1252;58978;-78
2024/02/13 00:42:32;;;;;;;19.80;15.80;;;;;;;5.55;100.00;98246.70;109425;1252;67033;-79
2024/02/13 00:45:00;;;;;;;20.00;16.10;;;;;;;5.52;100.00;98250.92;109167;1252;61291;-77
2024/02/13 00:47:30;;;;;;;23.40;17.60;;;;;;;5.47;100.00;98253.28;109449;1252;64912;-77
2024/02/13 00:49:58;;;;;;;28.30;19.50;;;;;;;5.43;100.00;98251.75;109397;1252;59191;-76
2024/02/13 00:52:28;;;;;;;25.30;19.80;;;;;;;5.41;100.00;98256.13;109463;1252;59308;-77
2024/02/13 00:54:55;;;;;;;;;;;;;;;5.38;100.00;98261.26;109413;1252;64755;-77
2024/02/13 00:57:22;;;;;;;25.00;19.60;;;;;;;5.33;100.00;98268.05;109466;1252;61016;-78
2024/02/13 00:59:48;;;;;;;28.10;20.30;;;;;;;5.28;100.00;98267.81;109123;1252;62774;-77
2024/02/13 01:02:18;;;;;;;23.60;18.80;;;;;;;5.24;100.00;98273.80;109420;1252;59739;-78
2024/02/13 01:04:44;;;;;;;23.90;18.70;;;;;;;5.21;100.00;98278.08;109128;1252;59182;-78
2024/02/13 01:07:11;;;;;;;23.90;18.50;;;;;;;5.18;100.00;98284.94;109427;1252;66712;-77
2024/02/13 01:09:38;;;;;;;22.70;17.90;;;;;;;5.14;100.00;98283.56;109430;1252;60838;-78
2024/02/13 01:12:05;;;;;;;22.20;17.30;;;;;;;5.09;100.00;98282.59;109144;1252;65183;-78
2024/02/13 01:14:32;;;;;;;20.40;16.90;;;;;;;5.05;100.00;98283.36;109422;1253;59549;-78
2024/02/13 01:17:00;;;;;;;21.60;17.30;;;;;;;5.01;100.00;98291.17;109448;1252;59403;-78
2024/02/13 01:19:27;;;;;;;21.70;18.20;;;;;;;4.96;100.00;98295.49;109402;1252;67048;-77
2024/02/13 01:21:54;;;;;;;25.20;20.10;;;;;;;4.91;100.00;98297.85;109398;1252;60101;-77
2024/02/13 01:24:20;;;;;;;24.20;19.40;;;;;;;4.85;100.00;98298.21;109408;1252;65090;-79
2024/02/13 01:26:47;;;;;;;27.10;21.70;;;;;;;4.79;100.00;98301.70;109389;1252;59012;-77
2024/02/13 01:29:14;;;;;;;26.90;20.20;;;;;;;4.73;100.00;98305.88;109443;1252;59302;-77
2024/02/13 01:31:41;;;;;;;24.10;19.80;;;;;;;4.67;100.00;98308.85;109463;1252;66014;-78
2024/02/13 01:34:08;;;;;;;27.00;21.90;;;;;;;4.59;100.00;98310.66;109472;1252;61373;-78
2024/02/13 01:36:38;;;;;;;28.70;22.20;;;;;;;4.53;100.00;98312.62;109448;1252;63900;-78
2024/02/13 01:39:05;;;;;;;28.50;23.00;;;;;;;4.47;100.00;98315.21;109438;1252;59179;-78
2024/02/13 01:41:31;;;;;;;28.60;23.90;;;;;;;4.41;100.00;98319.02;109147;1252;59032;-77
2024/02/13 01:43:59;;;;;;;28.90;23.90;;;;;;;4.37;100.00;98320.13;109017;1253;64815;-76
2024/02/13 01:46:28;;;;;;;33.60;25.20;;;;;;;4.33;100.00;98324.20;109452;1253;61103;-77
2024/02/13 01:48:58;;;;;;;30.80;22.40;;;;;;;4.30;100.00;98332.65;108972;1253;62652;-77
2024/02/13 01:51:30;;;;;;;30.10;23.40;;;;;;;4.27;100.00;98336.30;109201;1253;59180;-78
2024/02/13 01:53:59;;;;;;;24.20;20.90;;;;;;;4.25;100.00;98338.70;109505;1252;59237;-78
2024/02/13 01:56:29;;;;;;;26.20;21.00;;;;;;;4.23;100.00;98337.23;109467;1253;66974;-78
2024/02/13 01:58:56;;;;;;;29.80;21.60;;;;;;;4.21;100.00;98340.98;109433;1253;60991;-78
2024/02/13 02:01:24;;;;;;;28.60;21.20;;;;;;;4.19;100.00;98343.59;109424;1253;62852;-78
2024/02/13 02:03:52;;;;;;;28.60;20.70;;;;;;;4.16;100.00;98344.27;109192;1252;59048;-76
2024/02/13 02:06:19;;;;;;;30.70;21.20;;;;;;;4.14;100.00;98339.95;109444;1253;59043;-77
2024/02/13 02:08:47;;;;;;;29.00;20.70;;;;;;;4.14;100.00;98343.33;109441;1252;65987;-78
2024/02/13 02:11:14;;;;;;;28.90;20.50;;;;;;;4.13;100.00;98344.41;109150;1253;59055;-77
2024/02/13 02:13:42;;;;;;;24.90;20.30;;;;;;;4.12;100.00;98344.62;109450;1253;65243;-78
2024/02/13 02:16:09;;;;;;;25.10;19.60;;;;;;;4.11;100.00;98340.98;109441;1253;59049;-78
2024/02/13 02:18:36;;;;;;;25.80;19.10;;;;;;;4.08;100.00;98343.75;109496;1253;58978;-78
2024/02/13 02:21:03;;;;;;;25.40;18.50;;;;;;;4.07;100.00;98346.30;109441;1253;65949;-78
2024/02/13 02:23:29;;;;;;;23.00;17.80;;;;;;;4.05;100.00;98343.58;109453;1253;59929;-78
2024/02/13 02:25:56;;;;;;;26.10;19.90;;;;;;;4.04;100.00;98346.98;109040;1252;64588;-78
2024/02/13 02:28:24;;;;;;;27.10;20.00;;;;;;;4.04;100.00;98355.08;108677;1252;1002608;-77
2024/02/13 02:30:51;;;;;;;27.00;20.80;;;;;;;4.05;100.00;98356.06;109464;1253;58976;-77
2024/02/13 02:33:17;;;;;;;29.80;21.30;;;;;;;4.05;100.00;98356.04;109437;1252;67015;-78
2024/02/13 02:35:44;;;;;;;28.20;22.30;;;;;;;4.04;100.00;98361.91;109485;1252;61065;-77
2024/02/13 02:38:11;;;;;;;28.40;22.20;;;;;;;4.01;100.00;98363.14;109435;1252;65055;-78
2024/02/13 02:40:37;;;;;;;28.00;22.10;;;;;;;3.97;100.00;98362.77;109191;1252;59745;-76
2024/02/13 02:43:04;;;;;;;24.70;18.80;;;;;;;3.94;100.00;98368.57;109454;1252;59103;-77
2024/02/13 02:45:31;;;;;;;26.50;20.40;;;;;;;3.90;100.00;98371.23;109452;1252;67302;-77
2024/02/13 02:47:58;;;;;;;27.90;19.70;;;;;;;3.86;100.00;98376.33;109454;1252;60975;-77
2024/02/13 02:50:25;;;;;;;24.60;20.20;;;;;;;3.84;100.00;98380.15;109402;1252;65343;-77
2024/02/13 02:52:51;;;;;;;24.90;20.20;;;;;;;3.80;100.00;98377.52;109406;1252;58965;-78
2024/02/13 02:55:18;;;;;;;26.50;20.60;;;;;;;3.76;100.00;98387.20;109458;1252;59443;-77
2024/02/13 02:57:45;;;;;;;26.30;18.10;;;;;;;3.71;100.00;98387.95;109461;1252;67243;-78
2024/02/13 03:00:35;;;;;;;23.50;19.00;;;;;;;3.65;100.00;98391.41;109459;1252;60803;-79
2024/02/13 03:03:02;;;;;;;26.80;19.10;;;;;;;3.57;100.00;98390.92;109468;1252;65473;-77
2024/02/13 03:05:29;;;;;;;25.10;19.60;;;;;;;3.51;100.00;98393.50;108405;1252;1002574;-78
2024/02/13 03:07:55;;;;;;;22.90;18.20;;;;;;;3.46;100.00;98399.37;109497;1252;59173;-78
2024/02/13 03:10:22;;;;;;;28.10;22.00;;;;;;;3.40;100.00;98403.69;109459;1252;65961;-78
2024/02/13 03:12:49;;;;;;;26.40;19.80;;;;;;;3.34;100.00;98405.40;109455;1253;61523;-78
2024/02/13 03:15:17;;;;;;;28.70;22.10;;;;;;;3.26;100.00;98408.36;109457;1252;62820;-77
2024/02/13 03:17:44;;;;;;;24.20;18.60;;;;;;;3.19;100.00;98409.08;109446;1252;59105;-76
2024/02/13 03:20:12;;;;;;;24.50;18.40;;;;;;;3.09;100.00;98415.66;109251;1252;59014;-78
2024/02/13 03:22:39;;;;;;;27.10;20.80;;;;;;;3.01;100.00;98421.48;109485;1252;66991;-79
2024/02/13 03:25:06;;;;;;;29.40;22.80;;;;;;;2.94;100.00;98425.12;109390;1252;60211;-77
2024/02/13 03:27:33;;;;;;;27.00;20.80;;;;;;;2.88;100.00;98426.08;109498;1252;64808;-78
2024/02/13 03:30:00;;;;;;;32.00;25.10;;;;;;;2.83;100.00;98427.02;109452;1252;58990;-78
2024/02/13 03:32:26;;;;;;;36.50;28.90;;;;;;;2.79;100.00;98430.52;109469;1252;59004;-78
2024/02/13 03:34:53;;;;;;;38.10;30.40;;;;;;;2.76;100.00;98432.41;109460;1252;65963;-78
2024/02/13 03:37:20;;;;;;;36.00;29.40;;;;;;;2.77;100.00;98434.27;109504;1252;61254;-77
2024/02/13 03:39:47;;;;;;;38.30;28.50;;;;;;;2.78;100.00;98434.95;109222;1253;65075;-78
2024/02/13 03:42:15;;;;;;;35.10;29.30;;;;;;;2.77;100.00;98439.73;109457;1252;58953;-78
2024/02/13 03:44:42;;;;;;;36.10;28.30;;;;;;;2.74;100.00;98446.73;109505;1252;58915;-78
2024/02/13 03:47:08;;;;;;;41.10;32.70;;;;;;;2.68;100.00;98456.64;108369;1252;1002438;-78
2024/02/13 03:49:35;;;;;;;41.90;35.00;;;;;;;2.65;100.00;98459.56;109491;1252;60339;-77
2024/02/13 03:52:02;;;;;;;40.50;33.40;;;;;;;2.63;100.00;98463.31;109502;1252;63890;-77
2024/02/13 03:54:29;;;;;;;39.30;33.10;;;;;;;2.61;100.00;98466.92;109451;1254;59143;-78
2024/02/13 03:56:56;;;;;;;42.00;32.30;;;;;;;2.58;100.00;98470.20;109453;1252;59069;-78
2024/02/13 03:59:23;;;;;;;39.40;33.70;;;;;;;2.54;100.00;98470.73;109480;1252;66085;-77
2024/02/13 04:01:49;;;;;;;39.60;32.30;;;;;;;2.50;100.00;98471.09;109447;1252;61065;-77
2024/02/13 04:04:16;;;;;;;43.40;33.60;;;;;;;2.47;100.00;98475.05;109478;1252;63971;-78
2024/02/13 04:06:43;;;;;;;46.30;34.50;;;;;;;2.45;100.00;98483.21;109456;1252;58958;-78
2024/02/13 04:09:10;;;;;;;41.50;33.00;;;;;;;2.43;100.00;98484.17;109455;1252;59023;-78
2024/02/13 04:11:37;;;;;;;39.60;31.70;;;;;;;2.41;100.00;98486.02;109467;1256;65977;-77
2024/02/13 04:14:03;;;;;;;38.70;30.80;;;;;;;2.38;100.00;98488.77;109456;1252;61021;-78
2024/02/13 04:16:30;;;;;;;42.00;31.90;;;;;;;2.36;100.00;98486.76;109483;1252;64136;-78
2024/02/13 04:18:58;;;;;;;35.90;29.70;;;;;;;2.35;100.00;98493.11;109432;1253;59025;-77
2024/02/13 04:21:25;;;;;;;42.30;32.60;;;;;;;2.34;100.00;98497.87;109475;1252;59304;-77
2024/02/13 04:23:52;;;;;;;39.60;30.20;;;;;;;2.34;100.00;98498.41;109454;1252;66993;-77
2024/02/13 04:26:18;;;;;;;39.60;30.30;;;;;;;2.35;100.00;98499.40;109477;1252;60065;-77
2024/02/13 04:28:46;;;;;;;35.60;29.10;;;;;;;2.37;100.00;98498.09;109201;1252;64037;-76
2024/02/13 04:31:12;;;;;;;37.80;28.50;;;;;;;2.39;100.00;98497.48;109422;1252;59086;-79
2024/02/13 04:33:39;;;;;;;37.60;27.20;;;;;;;2.45;100.00;98497.23;109489;1252;59073;-76
2024/02/13 04:36:06;;;;;;;36.60;28.00;;;;;;;2.54;100.00;98500.37;109475;1252;65967;-77
2024/02/13 04:38:33;;;;;;;33.50;27.40;;;;;;;2.63;100.00;98498.58;109489;1252;61021;-78
2024/02/13 04:41:00;;;;;;;36.00;28.10;;;;;;;2.73;100.00;98501.14;109432;1253;65040;-78
2024/02/13 04:43:27;;;;;;;39.10;29.70;;;;;;;2.81;100.00;98505.02;109424;1252;59111;-77
2024/02/13 04:45:53;;;;;;;36.60;27.70;;;;;;;2.89;100.00;98507.29;109438;1252;59025;-78
2024/02/13 04:48:20;;;;;;;40.10;28.80;;;;;;;2.97;100.00;98508.17;109452;1252;66050;-79
2024/02/13 04:50:47;;;;;;;41.20;29.00;;;;;;;3.03;100.00;98511.94;109287;1252;61222;-78
2024/02/13 04:53:15;;;;;;;36.40;26.70;;;;;;;3.10;100.00;98516.73;109480;1252;64192;-78
2024/02/13 04:55:42;;;;;;;37.40;29.00;;;;;;;3.17;100.00;98521.50;109417;1252;58909;-79
2024/02/13 04:58:08;;;;;;;41.40;30.60;;;;;;;3.23;100.00;98516.30;109485;1252;58849;-77
2024/02/13 05:00:38;;;;;;;42.80;34.50;;;;;;;3.29;100.00;98520.40;109453;1252;66088;-77
2024/02/13 05:03:16;;;;;;;43.40;33.60;;;;;;;3.35;100.00;98524.89;109483;1252;60077;-78
2024/02/13 05:08:29;;;;;;;42.60;33.30;;;;;;;3.45;100.00;98532.31;109430;1252;59006;-77
2024/02/13 05:10:56;;;;;;;40.00;32.80;;;;;;;3.51;100.00;98536.63;108717;1252;1002270;-78
2024/02/13 05:13:23;;;;;;;39.30;32.60;;;;;;;3.57;100.00;98539.72;109462;1252;66962;-78
2024/02/13 05:15:50;;;;;;;38.70;29.20;;;;;;;3.63;100.00;98544.73;109447;1252;60095;-78
2024/02/13 05:18:19;;;;;;;37.30;29.60;;;;;;;3.67;100.00;98547.31;109436;1253;65511;-78
2024/02/13 05:20:47;;;;;;;34.50;27.10;;;;;;;3.71;100.00;98546.79;109468;1252;59045;-79
2024/02/13 05:23:14;;;;;;;34.30;27.10;;;;;;;3.75;100.00;98553.64;109444;1253;59330;-78
2024/02/13 05:25:41;;;;;;;34.40;27.90;;;;;;;3.80;100.00;98556.56;109449;1253;66045;-77
2024/02/13 05:28:09;;;;;;;37.10;28.50;;;;;;;3.84;100.00;98560.39;109146;1253;60285;-78
2024/02/13 05:30:36;;;;;;;38.00;29.90;;;;;;;3.90;100.00;98566.48;109458;1253;65066;-78
2024/02/13 05:33:04;;;;;;;41.10;30.30;;;;;;;3.94;100.00;98567.87;109437;1253;58962;-78
2024/02/13 05:35:30;;;;;;;37.80;29.70;;;;;;;3.98;100.00;98574.38;109478;1253;59021;-77
2024/02/13 05:38:00;;;;;;;41.70;31.90;;;;;;;4.00;100.00;98576.38;109447;1253;67192;-77
2024/02/13 05:40:27;;;;;;;44.40;31.80;;;;;;;4.03;100.00;98576.60;109443;1256;59931;-77
2024/02/13 05:42:54;;;;;;;42.70;29.90;;;;;;;4.06;100.00;98583.14;109467;1253;65153;-77
2024/02/13 05:45:21;;;;;;;35.60;26.60;;;;;;;4.09;100.00;98587.02;109454;1253;59041;-78
2024/02/13 05:47:48;;;;;;;37.50;26.20;;;;;;;4.12;100.00;98595.14;109146;1253;59024;-78
2024/02/13 05:50:18;;;;;;;32.60;24.20;;;;;;;4.15;100.00;98598.85;109465;1253;67240;-77
2024/02/13 05:52:47;;;;;;;33.50;25.20;;;;;;;4.19;100.00;98600.98;109460;1253;60316;-79
2024/02/13 05:55:14;;;;;;;32.80;24.80;;;;;;;4.22;100.00;98607.48;109436;1253;64207;-77
2024/02/13 05:57:41;;;;;;;31.80;23.50;;;;;;;4.25;100.00;98614.40;109135;1253;59320;-77
2024/02/13 06:00:14;;;;;;;37.30;25.40;;;;;;;4.27;100.00;98618.36;109443;1253;59421;-78
2024/02/13 06:02:41;;;;;;;31.00;24.30;;;;;;;4.29;100.00;98617.55;109315;1253;67262;-79
2024/02/13 06:05:10;;;;;;;33.30;23.70;;;;;;;4.31;100.00;98619.91;109185;1253;59776;-78
2024/02/13 06:07:37;;;;;;;39.80;26.60;;;;;;;4.32;100.00;98623.36;109167;1253;65096;-77
2024/02/13 06:10:04;;;;;;;30.40;24.60;;;;;;;4.34;100.00;98626.62;109421;1253;59028;-78
2024/02/13 06:12:31;;;;;;;31.00;22.90;;;;;;;4.37;100.00;98631.60;109461;1253;59043;-78
2024/02/13 06:14:58;;;;;;;27.90;21.80;;;;;;;4.41;100.00;98634.42;109495;1253;67049;-78
2024/02/13 06:17:24;;;;;;;28.60;23.30;;;;;;;4.44;100.00;98638.12;109491;1253;61103;-78
2024/02/13 06:19:51;;;;;;;29.50;23.20;;;;;;;4.47;100.00;98642.02;109483;1253;64703;-78
2024/02/13 06:22:17;;;;;;;32.30;23.80;;;;;;;4.50;100.00;98645.39;109451;1253;59076;-77
2024/02/13 06:24:44;;;;;;;31.10;24.60;;;;;;;4.53;100.00;98644.18;109481;1253;59347;-78
2024/02/13 06:27:11;;;;;;;32.00;25.20;;;;;;;4.55;100.00;98646.38;109469;1253;64405;-78
2024/02/13 06:29:38;;;;;;;30.80;23.80;;;;;;;4.58;100.00;98653.62;109484;1253;60043;-77
2024/02/13 06:32:05;;;;;;;33.50;24.10;;;;;;;4.63;100.00;98657.08;109481;1253;65547;-78
2024/02/13 06:34:31;;;;;;;29.50;24.20;;;;;;;4.68;100.00;98663.02;109463;1253;58951;-78
2024/02/13 06:36:58;;;;;;;36.00;24.80;;;;;;;4.72;100.00;98665.99;109441;1254;59044;-78
2024/02/13 06:39:25;;;;;;;30.70;22.90;;;;;;;4.76;100.00;98669.11;109514;1255;67051;-78
2024/02/13 06:41:52;;;;;;;28.60;22.30;;;;;;;4.82;100.00;98673.78;108707;1256;1003067;-79
2024/02/13 06:44:22;;;;;;;29.20;22.50;;;;;;;4.87;100.00;98679.50;109436;1253;65016;-78
2024/02/13 06:46:48;;;;;;;26.70;20.40;;;;;;;4.92;100.00;98684.34;109443;1253;59679;-78
2024/02/13 06:49:15;;;;;;;28.90;20.80;;;;;;;4.94;100.00;98687.09;109401;1253;59423;-78
2024/02/13 06:51:42;;;;;;;30.10;22.30;;;;;;;4.96;100.00;98691.41;109437;1254;66992;-78
2024/02/13 06:54:08;;;;;;;26.30;19.70;;;;;;;4.98;100.00;98698.85;109462;1253;60504;-78
2024/02/13 06:56:38;;;;;;;25.10;19.30;;;;;;;5.00;100.00;98705.63;109397;1256;64139;-77
2024/02/13 06:59:07;;;;;;;27.20;20.90;;;;;;;5.03;100.00;98709.52;109413;1253;59091;-78
2024/02/13 07:01:35;;;;;;;30.00;22.10;;;;;;;5.08;100.00;98712.13;109423;1256;59293;-78
2024/02/13 07:04:02;;;;;;;29.80;23.00;;;;;;;5.13;100.00;98714.69;109160;1254;67248;-79
2024/02/13 07:06:29;;;;;;;28.00;21.00;;;;;;;5.21;100.00;98720.10;109407;1255;61029;-79
2024/02/13 07:08:55;;;;;;;28.70;22.50;;;;;;;5.28;100.00;98724.85;109194;1253;64058;-78
2024/02/13 07:11:22;;;;;;;28.40;22.10;;;;;;;5.34;100.00;98726.83;109422;1256;59340;-78
2024/02/13 07:13:49;;;;;;;28.60;21.30;;;;;;;5.39;100.00;98727.10;109116;1253;59008;-79
2024/02/13 07:16:15;;;;;;;29.00;20.70;;;;;;;5.43;100.00;98731.83;109412;1253;66027;-77
2024/02/13 07:18:42;;;;;;;26.30;20.10;;;;;;;5.45;100.00;98739.14;109434;1253;58994;-78
2024/02/13 07:21:10;;;;;;;33.80;23.90;;;;;;;5.49;100.00;98743.73;109415;1253;65138;-78
2024/02/13 07:23:37;;;;;;;26.80;20.60;;;;;;;5.53;100.00;98744.56;109183;1254;59382;-78
2024/02/13 07:26:04;;;;;;;25.50;21.00;;;;;;;5.57;100.00;98745.61;109389;1256;59268;-78
2024/02/13 07:28:31;;;;;;;29.70;20.70;;;;;;;5.58;100.00;98751.39;109408;1254;67004;-78
2024/02/13 07:30:57;;;;;;;27.50;20.40;;;;;;;5.58;100.00;98753.66;109444;1253;60762;-78
2024/02/13 07:33:24;;;;;;;33.00;22.60;;;;;;;5.57;100.00;98761.44;109412;1253;64159;-78
2024/02/13 07:35:51;;;;;;;30.30;21.80;;;;;;;5.59;100.00;98758.70;109408;1253;59048;-79
2024/02/13 07:38:17;;;;;;;23.40;19.90;;;;;;;5.62;100.00;98761.52;109440;1253;59317;-77
2024/02/13 07:40:44;;;;;;;23.50;18.50;;;;;;;5.66;100.00;98762.91;109404;1256;66957;-77
2024/02/13 07:43:13;;;;;;;21.00;17.90;;;;;;;5.71;100.00;98768.70;109453;1253;61119;-79
2024/02/13 07:45:39;;;;;;;24.80;19.20;;;;;;;5.75;100.00;98770.44;109405;1253;65174;-78
2024/02/13 07:48:10;;;;;;;24.40;18.40;;;;;;;5.80;100.00;98774.40;109406;1254;59066;-78
2024/02/13 07:50:37;;;;;;;24.30;19.50;;;;;;;5.90;100.00;98780.77;109166;1253;58948;-77
2024/02/13 07:53:06;;;;;;;24.00;20.70;;;;;;;6.11;100.00;98785.18;109412;1253;67083;-78
2024/02/13 07:55:36;;;;;;;25.40;20.10;;;;;;;6.21;100.00;98792.21;109428;1253;60128;-79
2024/02/13 07:58:03;;;;;;;25.50;20.50;;;;;;;6.24;100.00;98789.63;109464;1254;64029;-77
2024/02/13 08:00:33;;;;;;;28.40;21.90;;;;;;;6.26;100.00;98789.53;109436;1255;59230;-79
2024/02/13 08:03:01;;;;;;;;;;;;;;;6.28;100.00;98793.30;109429;1253;59405;-78
2024/02/13 08:05:33;;;;;;;30.20;21.90;;;;;;;6.28;100.00;98798.40;109377;1254;66908;-78
2024/02/13 08:08:02;;;;;;;26.30;19.70;;;;;;;6.26;100.00;98802.21;109426;1253;60227;-77
2024/02/13 08:10:29;;;;;;;23.80;17.30;;;;;;;6.26;100.00;98804.88;109398;1254;64103;-77
2024/02/13 08:12:57;;;;;;;22.40;16.70;;;;;;;6.27;100.00;98806.21;109365;1254;59078;-79
2024/02/13 08:15:24;;;;;;;17.30;15.30;;;;;;;6.30;100.00;98809.79;109411;1253;59015;-78
2024/02/13 08:17:50;;;;;;;17.90;15.60;;;;;;;6.29;100.00;98813.01;109417;1254;66054;-81
2024/02/13 08:20:17;;;;;;;18.60;13.60;;;;;;;6.26;100.00;98811.54;109371;1254;61066;-78
2024/02/13 08:22:44;;;;;;;16.90;12.90;;;;;;;6.31;100.00;98808.14;109105;1253;65123;-78
2024/02/13 08:25:10;;;;;;;15.00;13.00;;;;;;;6.47;100.00;98808.56;109404;1253;59453;-79
2024/02/13 08:27:37;;;;;;;16.00;13.10;;;;;;;6.74;100.00;98814.47;109400;1254;59048;-78
2024/02/13 08:30:09;;;;;;;14.50;12.50;;;;;;;7.01;100.00;98813.53;109443;1254;67041;-81
2024/02/13 08:32:38;;;;;;;15.40;12.50;;;;;;;7.19;100.00;98817.33;109403;1254;60743;-75
2024/02/13 08:35:05;;;;;;;15.10;11.90;;;;;;;7.30;100.00;98818.47;109405;1254;65088;-73
2024/02/13 08:37:32;;;;;;;15.60;11.80;;;;;;;7.37;100.00;98821.43;109382;1256;59545;-74
2024/02/13 08:39:58;;;;;;;11.40;10.10;;;;;;;7.42;100.00;98824.64;109433;1253;59321;-76
2024/02/13 08:42:26;;;;;;;11.10;10.00;;;;;;;7.51;100.00;98831.41;109397;1253;67195;-76
2024/02/13 08:44:54;;;;;;;12.90;10.50;;;;;;;7.53;100.00;98835.17;109241;1253;60614;-76
2024/02/13 08:47:21;;;;;;;14.10;11.60;;;;;;;7.55;100.00;98832.44;109374;1253;64215;-76
2024/02/13 08:49:48;;;;;;;12.70;10.80;;;;;;;7.50;100.00;98834.80;109280;1254;58948;-76
2024/02/13 08:52:15;;;;;;;14.80;11.10;;;;;;;7.43;100.00;98834.11;109435;1253;58993;-76
2024/02/13 08:54:41;;;;;;;13.40;10.90;;;;;;;7.36;100.00;98835.23;109324;1254;66186;-75
2024/02/13 08:57:08;;;;;;;9.30;8.30;;;;;;;7.32;100.00;98838.49;109385;1255;60055;-76
2024/02/13 08:59:35;;;;;;;10.50;8.10;;;;;;;7.20;100.00;98841.98;109303;1253;63004;-74
2024/02/13 09:02:02;;;;;;;9.60;8.00;;;;;;;7.13;100.00;98847.52;109379;1253;59267;-76
2024/02/13 09:04:28;;;;;;;9.20;7.50;;;;;;;7.08;100.00;98849.70;109398;1253;59039;-76
2024/02/13 09:06:55;;;;;;;10.40;8.80;;;;;;;7.04;100.00;98849.61;109297;1254;67024;-75
2024/02/13 09:09:22;;;;;;;9.70;8.70;;;;;;;6.98;100.00;98852.90;109369;1253;61133;-76
2024/02/13 09:11:48;;;;;;;14.90;9.10;;;;;;;6.96;100.00;98855.15;109085;1252;64200;-75
2024/02/13 09:14:15;;;;;;;15.90;11.50;;;;;;;6.97;100.00;98853.48;109339;1253;59124;-76
2024/02/13 09:16:42;;;;;;;13.60;11.10;;;;;;;6.98;100.00;98855.23;109131;1253;59334;-77
2024/02/13 09:19:08;;;;;;;11.30;9.80;;;;;;;6.96;100.00;98859.55;109383;1254;65857;-75
2024/02/13 09:21:35;;;;;;;8.20;7.30;;;;;;;6.93;100.00;98863.10;109305;1253;60088;-75
2024/02/13 09:24:03;;;;;;;10.10;8.30;;;;;;;6.86;100.00;98863.84;109374;1253;64059;-75
2024/02/13 09:26:29;;;;;;;11.50;8.30;;;;;;;6.88;100.00;98865.98;109407;1253;59097;-76
2024/02/13 09:28:57;;;;;;;12.10;9.90;;;;;;;6.96;100.00;98862.77;109324;1253;59420;-76
2024/02/13 09:31:23;;;;;;;9.80;8.80;;;;;;;7.06;100.00;98863.63;109372;1253;66062;-76
2024/02/13 09:33:50;;;;;;;11.70;8.80;;;;;;;7.14;100.00;98864.41;109373;1253;61007;-76
2024/02/13 09:36:20;;;;;;;13.90;9.90;;;;;;;7.22;100.00;98865.37;109403;1253;64997;-76
2024/02/13 09:38:47;;;;;;;10.80;9.70;;;;;;;7.30;100.00;98865.46;109366;1253;59018;-76
2024/02/13 09:41:14;;;;;;;11.00;8.80;;;;;;;7.36;100.00;98865.84;109380;1254;58906;-76
2024/02/13 09:43:42;;;;;;;9.00;7.90;;;;;;;7.44;100.00;98869.48;109397;1253;67324;-76
2024/02/13 09:46:09;;;;;;;9.90;7.80;;;;;;;7.51;100.00;98870.16;109375;1253;60243;-75
2024/02/13 09:48:38;;;;;;;11.90;8.90;;;;;;;7.56;100.00;98872.86;109371;1252;64045;-76
2024/02/13 09:51:08;;;;;;;13.30;8.60;;;;;;;7.60;100.00;98872.44;109354;1253;59051;-77
2024/02/13 09:53:42;;;;;;;11.00;7.60;;;;;;;7.69;100.00;98876.73;109395;1253;59078;-76
2024/02/13 09:56:13;;;;;;;10.30;8.00;;;;;;;7.78;100.00;98878.70;109362;1253;67177;-76
2024/02/13 09:58:41;;;;;;;11.40;7.30;;;;;;;7.83;100.00;98885.45;109383;1254;59170;-75
2024/02/13 10:01:08;;;;;;;9.50;7.70;;;;;;;7.84;100.00;98890.70;109363;1252;64032;-76
2024/02/13 10:03:39;;;;;;;10.80;7.80;;;;;;;7.82;100.00;98891.32;109223;1253;59044;-76
2024/02/13 10:06:12;;;;;;;8.10;6.90;;;;;;;7.79;100.00;98890.79;109395;1253;59112;-76
2024/02/13 10:08:39;;;;;;;7.70;6.90;;;;;;;7.82;100.00;98892.04;109416;1253;67445;-76
2024/02/13 10:11:15;;;;;;;8.80;7.00;;;;;;;7.91;100.00;98892.25;109399;1253;59788;-76
2024/02/13 10:13:42;;;;;;;9.30;6.80;;;;;;;8.00;100.00;98891.38;109381;1254;65228;-76
2024/02/13 10:16:28;;;;;;;7.90;6.30;;;;;;;8.09;100.00;98890.13;109120;1253;59365;-76
2024/02/13 10:18:57;;;;;;;6.90;6.00;;;;;;;8.11;100.00;98888.60;109387;1253;59109;-76
2024/02/13 10:21:25;;;;;;;9.80;7.00;;;;;;;8.13;100.00;98889.22;109410;1253;67048;-76
2024/02/13 10:24:06;;;;;;;7.90;6.70;;;;;;;8.16;100.00;98890.42;109373;1253;61241;-76
2024/02/13 10:26:34;;;;;;;7.50;5.80;;;;;;;8.17;100.00;98890.02;109305;1253;65087;-75
2024/02/13 10:29:01;;;;;;;7.10;5.50;;;;;;;8.19;100.00;98887.81;109404;1252;58970;-75
2024/02/13 10:31:34;;;;;;;7.40;5.80;;;;;;;8.25;100.00;98887.42;109449;1253;59011;-77
2024/02/13 10:34:07;;;;;;;9.20;5.90;;;;;;;8.30;100.00;98889.23;109521;1252;66955;-76
2024/02/13 10:36:41;;;;;;;9.40;6.10;;;;;;;8.39;100.00;98885.74;109425;1252;61110;-76
2024/02/13 10:39:11;;;;;;;7.40;6.20;;;;;;;8.55;100.00;98889.75;109222;1252;65356;-75
2024/02/13 10:41:39;;;;;;;8.70;5.60;;;;;;;8.68;100.00;98894.44;109412;1253;59056;-76
2024/02/13 10:44:10;;;;;;;7.50;5.10;;;;;;;8.77;100.00;98897.62;109284;1252;58909;-76
2024/02/13 10:46:39;;;;;;;9.00;5.00;;;;;;;8.99;100.00;98891.16;109368;1253;67065;-77
2024/02/13 10:49:35;;;;;;;7.70;4.50;;;;;;;9.31;100.00;98893.56;109400;1253;61106;-76
2024/02/13 10:52:05;;;;;;;6.40;5.20;;;;;;;9.41;100.00;98898.08;109367;1253;65084;-78
2024/02/13 10:54:37;;;;;;;9.20;4.60;;;;;;;9.29;100.00;98893.66;109391;1253;59191;-76
2024/02/13 10:57:06;;;;;;;5.40;4.20;;;;;;;9.16;100.00;98893.43;109428;1253;58863;-75
2024/02/13 10:59:35;;;;;;;8.60;4.50;;;;;;;9.10;100.00;98900.55;109419;1252;67192;-75
2024/02/13 11:02:02;;;;;;;5.70;4.00;;;;;;;9.08;100.00;98899.61;109380;1252;61032;-77
2024/02/13 11:04:30;;;;;;;7.90;4.90;;;;;;;9.07;100.00;98900.55;109354;1252;65044;-76
2024/02/13 11:06:58;;;;;;;6.60;4.80;;;;;;;9.10;100.00;98902.86;109332;1254;59067;-75
2024/02/13 11:09:25;;;;;;;7.10;4.10;;;;;;;9.12;100.00;98902.58;109429;1252;58965;-76
2024/02/13 11:11:52;;;;;;;5.30;3.50;;;;;;;9.14;100.00;98901.70;109410;1252;66471;-75
2024/02/13 11:14:23;;;;;;;5.10;3.20;;;;;;;9.16;100.00;98897.31;109285;1252;60159;-75
2024/02/13 11:16:51;;;;;;;3.60;2.50;;;;;;;9.23;100.00;98900.61;109350;1252;65140;-76